Latest Weather Observations for Perth

IDW60801

Issued at 3:33 pm WST Friday 1 July 2016 (issued every 30 minutes, with the page automatically refreshed every 10 minutes)

About weather observations | Map of weather stations | Latest weather observations for WA | Other Formats
Station Details ID: 009225 Name: PERTH METRO Lat: -31.92 Lon: 115.87 Height: 24.9 m
Data from the previous 72 hours. | See also: Recent months at Perth
Date/Time
WST
Temp
°C
App
Temp
°C
Dew
Point
°C
Rel
Hum
%
Delta-T
°C
Wind Press
QNH
hPa
Press
MSL
hPa
Rain since
9am
mm
Dir  Spd
km/h
Gust
km/h
Spd
kts
Gust
kts
01/03:30pm 19.0 17.2 5.5 41 6.6 ENE 4 9 2 5 1025.0 1025.0 0.0
01/03:00pm 18.5 16.3 5.4 42 6.3 ENE 6 9 3 5 1025.2 1025.2 0.0
01/02:30pm 18.1 16.2 5.0 42 6.3 SE 4 9 2 5 1025.2 1025.2 0.0
01/02:00pm 17.8 15.4 5.1 43 6.1 SE 7 13 4 7 1025.4 1025.4 0.0
01/01:30pm 18.2 16.1 5.8 44 6.1 SSE 6 9 3 5 1025.5 1025.5 0.0
01/01:00pm 17.3 14.8 4.9 44 5.9 SE 7 13 4 7 1026.1 1026.1 0.0
01/12:30pm 17.1 14.9 5.4 46 5.6 ESE 6 15 3 8 1026.6 1026.6 0.0
01/12:00pm 16.8 14.2 6.0 49 5.2 NE 9 13 5 7 1027.3 1027.3 0.0
01/11:30am 16.2 13.8 7.2 55 4.5 E 9 13 5 7 1027.7 1027.7 0.0
01/11:00am 15.4 13.4 7.2 58 4.0 ENE 7 13 4 7 1028.2 1028.2 0.0
01/10:30am 14.0 11.7 5.9 58 3.9 NE 7 11 4 6 1028.6 1028.6 0.0
01/10:00am 12.1 10.0 6.8 70 2.5 NE 7 11 4 6 1028.9 1028.9 0.0
01/09:30am 10.3 8.1 6.1 75 1.9 NE 7 11 4 6 1028.9 1028.9 0.0
01/09:00am 8.8 6.8 6.4 85 1.1 SW 6 9 3 5 1028.9 1028.9 0.0
01/08:30am 6.6 4.6 6.2 97 0.2 SW 6 7 3 4 1028.9 1028.9 0.0
01/08:00am 5.0 2.7 4.9 99 0.0 SW 6 7 3 4 1028.6 1028.6 0.0
01/07:30am 3.4 2.0 3.3 99 0.0 CALM 0 7 0 4 1028.3 1028.3 0.0
01/07:00am 3.2 1.7 3.1 99 0.0 CALM 0 0 0 0 1028.0 1028.0 0.0
01/06:30am 3.6 2.2 3.5 99 0.0 CALM 0 0 0 0 1027.7 1027.7 0.0
01/06:00am 3.6 2.2 3.3 98 0.1 CALM 0 0 0 0 1027.6 1027.6 0.0
01/05:30am 3.9 2.5 3.6 98 0.1 CALM 0 0 0 0 1027.5 1027.5 0.0
01/05:00am 4.0 2.2 3.7 98 0.1 SW 2 6 1 3 1027.4 1027.4 0.0
01/04:30am 4.2 2.9 3.9 98 0.1 CALM 0 4 0 2 1027.4 1027.4 0.0
01/04:00am 4.3 2.6 4.0 98 0.1 SW 2 7 1 4 1027.3 1027.3 0.0
01/03:30am 4.3 3.0 3.9 97 0.2 CALM 0 0 0 0 1027.6 1027.6 0.0
01/03:00am 4.4 3.1 4.0 97 0.2 CALM 0 0 0 0 1027.4 1027.4 0.0
01/02:30am 4.4 3.1 4.0 97 0.2 CALM 0 0 0 0 1027.5 1027.5 0.0
01/02:00am 4.9 3.7 4.5 97 0.2 CALM 0 0 0 0 1027.3 1027.3 0.0
01/01:30am 5.4 4.3 5.0 97 0.2 CALM 0 0 0 0 1027.4 1027.4 0.0
01/01:00am 5.7 4.6 5.1 96 0.3 CALM 0 0 0 0 1027.4 1027.4 0.0
01/12:30am 5.8 4.7 5.2 96 0.3 CALM 0 0 0 0 1027.7 1027.7 0.0
01/12:00am 6.0 4.9 5.3 95 0.3 CALM 0 0 0 0 1027.5 1027.5 0.0
 
Date/Time
WST
Temp
°C
App
Temp
°C
Dew
Point
°C
Rel
Hum
%
Delta-T
°C
Wind Press
QNH
hPa
Press
MSL
hPa
Rain since
9am
mm
Dir  Spd
km/h
Gust
km/h
Spd
kts
Gust
kts
30/11:30pm 6.4 5.4 5.7 95 0.3 CALM 0 0 0 0 1027.6 1027.6 0.0
30/11:00pm 6.7 5.8 6.0 95 0.3 CALM 0 0 0 0 1027.9 1027.9 0.0
30/10:30pm 7.0 6.1 6.1 94 0.4 CALM 0 0 0 0 1027.9 1027.9 0.0
30/10:00pm 7.2 6.3 6.0 92 0.5 CALM 0 0 0 0 1027.8 1027.8 0.0
30/09:30pm 7.8 7.0 6.4 91 0.6 CALM 0 0 0 0 1027.8 1027.8 0.0
30/09:00pm 8.4 7.6 6.7 89 0.8 CALM 0 0 0 0 1027.8 1027.8 0.0
30/08:30pm 9.0 8.3 7.0 87 0.9 CALM 0 0 0 0 1027.7 1027.7 0.0
30/08:00pm 10.0 8.6 7.3 83 1.3 SW 4 6 2 3 1027.5 1027.5 0.0
30/07:30pm 11.0 10.0 7.3 78 1.8 SW 2 6 1 3 1027.2 1027.2 0.0
30/07:00pm 12.9 11.0 6.9 67 2.9 SW 6 9 3 5 1026.8 1026.8 0.0
30/06:30pm 13.4 11.4 7.0 65 3.1 SSW 7 11 4 6 1026.4 1026.4 0.0
30/06:00pm 13.7 11.7 6.3 61 3.5 SSW 6 11 3 6 1026.0 1026.0 0.0
30/05:30pm 14.3 11.7 6.2 58 3.9 SW 9 13 5 7 1025.5 1025.5 0.0
30/05:00pm 15.4 13.1 5.6 52 4.7 SSW 7 11 4 6 1025.1 1025.1 0.0
30/04:30pm 16.3 14.1 6.2 51 4.9 SW 7 13 4 7 1025.0 1025.0 0.0
30/04:00pm 17.2 15.0 6.1 48 5.4 SW 7 15 4 8 1024.9 1024.9 0.0
30/03:30pm 17.3 14.8 6.5 49 5.3 S 9 15 5 8 1024.7 1024.7 0.0
30/03:00pm 17.7 15.5 6.3 47 5.6 SSE 7 13 4 7 1024.7 1024.7 0.0
30/02:30pm 17.7 15.1 6.3 47 5.6 SW 9 15 5 8 1024.8 1024.8 0.0
30/02:00pm 17.4 14.7 5.7 46 5.7 S 9 15 5 8 1024.8 1024.8 0.0
30/01:30pm 17.1 14.3 5.1 45 5.7 S 9 15 5 8 1025.2 1025.2 0.0
30/01:00pm 17.0 14.2 5.3 46 5.6 SSW 9 19 5 10 1025.5 1025.5 0.0
30/12:30pm 17.0 14.4 5.9 48 5.4 S 9 15 5 8 1025.8 1025.8 0.0
30/12:00pm 16.9 14.6 5.8 48 5.4 SE 7 13 4 7 1026.2 1026.2 0.0
30/11:30am 16.5 13.9 6.1 50 5.1 NE 9 13 5 7 1026.7 1026.7 0.0
30/11:00am 16.2 13.8 7.2 55 4.4 NE 9 15 5 8 1027.1 1027.1 0.0
30/10:30am 15.0 12.6 7.1 59 3.9 NE 9 15 5 8 1027.3 1027.3 0.0
30/10:00am 14.1 11.8 7.6 65 3.2 NE 9 13 5 7 1027.4 1027.4 0.0
30/09:30am 12.6 11.0 8.1 74 2.2 SSE 6 9 3 5 1027.4 1027.4 0.0
30/09:00am 11.1 10.6 9.4 89 0.8 SSW 2 7 1 4 1027.2 1027.2 0.0
30/08:30am 8.9 7.9 8.8 99 0.0 SSW 4 7 2 4 1026.9 1026.9 0.0
30/08:00am 6.9 5.4 6.8 99 0.0 SSW 4 7 2 4 1026.6 1026.6 0.0
30/07:30am 5.8 3.7 5.7 99 0.0 SSW 6 7 3 4 1026.4 1026.4 0.0
30/07:00am 5.6 3.8 5.5 99 0.0 SSW 4 7 2 4 1026.2 1026.2 0.0
30/06:30am 5.1 3.6 5.0 99 0.0 SSW 2 6 1 3 1026.0 1026.0 0.0
30/06:00am 5.4 3.6 5.3 99 0.0 SSW 4 7 2 4 1025.8 1025.8 0.0
30/05:30am 5.4 4.3 5.3 99 0.0 CALM 0 0 0 0 1025.6 1025.6 0.0
30/05:00am 5.4 4.3 5.3 99 0.0 CALM 0 0 0 0 1025.4 1025.4 0.0
30/04:30am 6.0 5.1 5.9 99 0.0 CALM 0 0 0 0 1025.1 1025.1 0.0
30/04:00am 6.2 5.3 6.1 99 0.0 CALM 0 0 0 0 1024.9 1024.9 0.0
30/03:30am 6.2 5.3 6.1 99 0.0 CALM 0 0 0 0 1024.9 1024.9 0.0
30/03:00am 6.4 5.5 6.1 98 0.1 CALM 0 0 0 0 1024.8 1024.8 0.0
30/02:30am 6.4 5.5 6.1 98 0.1 CALM 0 0 0 0 1024.9 1024.9 0.0
30/02:00am 6.9 6.1 6.6 98 0.1 CALM 0 0 0 0 1024.8 1024.8 0.0
30/01:30am 7.2 6.5 6.9 98 0.1 CALM 0 0 0 0 1024.8 1024.8 0.0
30/01:00am 7.3 6.6 7.0 98 0.1 CALM 0 0 0 0 1024.5 1024.5 0.0
30/12:30am 7.7 7.1 7.4 98 0.1 CALM 0 0 0 0 1024.5 1024.5 0.0
30/12:00am 8.0 7.4 7.6 97 0.2 CALM 0 0 0 0 1024.6 1024.6 0.0
 
Date/Time
WST
Temp
°C
App
Temp
°C
Dew
Point
°C
Rel
Hum
%
Delta-T
°C
Wind Press
QNH
hPa
Press
MSL
hPa
Rain since
9am
mm
Dir  Spd
km/h
Gust
km/h
Spd
kts
Gust
kts
29/11:30pm 8.2 7.6 7.6 96 0.3 CALM 0 0 0 0 1024.4 1024.4 0.0
29/11:00pm 8.7 8.3 8.1 96 0.3 CALM 0 0 0 0 1024.4 1024.4 0.0
29/10:30pm 9.1 8.8 8.5 96 0.3 CALM 0 0 0 0 1024.1 1024.1 0.0
29/10:00pm 9.6 9.3 8.8 95 0.4 CALM 0 0 0 0 1023.9 1023.9 0.0
29/09:30pm 10.1 9.9 9.0 93 0.5 CALM 0 0 0 0 1023.7 1023.7 0.0
29/09:00pm 10.8 10.7 9.4 91 0.7 CALM 0 0 0 0 1023.5 1023.5 0.0
29/08:30pm 11.6 11.6 9.7 88 1.0 CALM 0 0 0 0 1023.2 1023.2 0.0
29/08:00pm 13.0 13.0 9.8 81 1.6 CALM 0 2 0 1 1023.1 1023.1 0.0
29/07:30pm 14.6 13.4 10.2 75 2.3 SSW 7 13 4 7 1022.7 1022.7 0.0
29/07:00pm 14.5 13.4 10.5 77 2.1 S 7 13 4 7 1022.3 1022.3 0.0
29/06:30pm 13.8 13.1 11.3 85 1.3 S 6 9 3 5 1022.0 1022.0 0.0
29/06:00pm 14.5 14.2 11.5 82 1.6 WNW 4 7 2 4 1021.5 1021.5 0.0
29/05:30pm 15.3 14.1 11.7 79 1.9 W 9 19 5 10 1021.0 1021.0 0.0
29/05:00pm 16.2 14.4 9.6 65 3.4 SW 9 17 5 9 1020.7 1020.7 0.0
29/04:30pm 16.8 14.2 9.5 62 3.8 SW 13 20 7 11 1020.2 1020.2 0.0
29/04:00pm 17.3 14.7 9.5 60 4.1 SW 13 22 7 12 1019.9 1019.9 0.0
29/03:30pm 17.6 14.8 10.0 61 4.0 SW 15 24 8 13 1019.6 1019.6 0.0
29/03:00pm 18.3 15.6 10.4 60 4.2 SW 15 22 8 12 1019.3 1019.3 0.0
29/02:30pm 17.3 14.5 10.0 62 3.9 SW 15 28 8 15 1019.0 1019.0 0.0
29/02:00pm 17.8 14.2 9.9 60 4.2 SW 19 28 10 15 1018.6 1018.6 0.0
29/01:30pm 18.7 15.5 10.0 57 4.6 SW 17 28 9 15 1018.5 1018.5 0.0
29/01:00pm 18.1 15.2 9.5 57 4.5 WSW 15 24 8 13 1018.5 1018.5 0.0
29/12:30pm 18.2 15.3 9.8 58 4.4 SW 15 28 8 15 1018.7 1018.7 0.0
29/12:00pm 18.1 15.1 9.2 56 4.6 SW 15 24 8 13 1018.8 1018.8 0.0
29/11:30am 17.7 14.9 10.1 61 4.0 SSW 15 24 8 13 1018.9 1018.9 0.0
29/11:00am 17.5 15.8 11.3 67 3.4 SSW 11 20 6 11 1018.9 1018.9 0.0
29/10:30am 17.6 16.6 12.3 71 2.9 SSW 9 24 5 13 1018.8 1018.8 0.0
29/10:00am 16.2 17.1 12.9 81 1.8 CALM 0 0 0 0 1018.8 1018.8 0.0
29/09:30am 16.0 17.0 14.2 89 1.0 W 2 9 1 5 1018.5 1018.5 0.0
29/09:00am 13.5 13.2 12.7 95 0.4 W 6 7 3 4 1018.1 1018.1 17.8
29/08:30am 12.4 12.7 12.2 99 0.1 SW 2 9 1 5 1017.8 1017.8 17.8
29/08:00am 10.2 10.3 10.1 99 0.1 CALM 0 0 0 0 1017.2 1017.2 17.6
29/07:30am 10.8 11.0 10.6 99 0.1 CALM 0 0 0 0 1016.6 1016.6 17.6
29/07:00am 10.9 11.1 10.7 99 0.1 CALM 0 0 0 0 1016.3 1016.3 17.6
29/06:30am 11.6 10.9 11.4 99 0.1 SW 6 7 3 4 1015.9 1015.8 17.6
29/06:00am 11.7 11.0 11.5 99 0.1 WSW 6 20 3 11 1015.5 1015.4 17.6
29/05:30am 9.9 9.9 9.8 99 0.1 CALM 0 0 0 0 1015.0 1014.9 17.6
29/05:00am 10.6 10.8 10.4 99 0.1 CALM 0 0 0 0 1014.7 1014.6 17.6
29/04:30am 11.1 11.0 10.9 99 0.1 WSW 2 6 1 3 1014.6 1014.5 17.6
29/04:00am 11.3 11.7 11.1 99 0.1 CALM 0 0 0 0 1014.3 1014.2 17.6
29/03:30am 12.1 11.4 11.9 99 0.1 WSW 7 9 4 5 1014.2 1014.1 17.6
29/03:00am 12.9 13.0 12.7 99 0.1 SW 4 17 2 9 1014.2 1014.1 17.6
29/02:30am 11.8 12.3 11.6 99 0.1 CALM 0 0 0 0 1014.0 1013.9 17.6
29/02:00am 11.8 12.3 11.6 99 0.1 CALM 0 0 0 0 1014.0 1013.9 17.6
29/01:30am 12.3 13.0 12.1 99 0.1 CALM 0 0 0 0 1013.8 1013.7 17.6
29/01:00am 12.5 13.2 12.3 99 0.1 CALM 0 0 0 0 1013.8 1013.7 17.6
29/12:30am 12.9 13.4 12.7 99 0.1 W 2 6 1 3 1013.6 1013.5 17.6
29/12:00am 13.2 13.8 13.0 99 0.1 W 2 6 1 3 1013.5 1013.4 17.6
 
Date/Time
WST
Temp
°C
App
Temp
°C
Dew
Point
°C
Rel
Hum
%
Delta-T
°C
Wind Press
QNH
hPa
Press
MSL
hPa
Rain since
9am
mm
Dir  Spd
km/h
Gust
km/h
Spd
kts
Gust
kts
28/11:30pm 13.3 14.3 13.1 99 0.1 CALM 0 0 0 0 1013.6 1013.5 17.6
28/11:00pm 13.3 14.3 13.1 99 0.1 CALM 0 0 0 0 1013.6 1013.5 17.6
28/10:30pm 13.3 14.3 13.1 99 0.1 CALM 0 0 0 0 1013.3 1013.2 17.6
28/10:00pm 13.4 14.4 13.2 99 0.1 CALM 0 0 0 0 1013.5 1013.4 17.6
28/09:30pm 13.6 14.7 13.4 99 0.1 CALM 0 0 0 0 1013.4 1013.3 17.6
28/09:00pm 13.4 14.4 13.2 99 0.1 CALM 0 0 0 0 1013.3 1013.2 17.6
28/08:30pm 13.6 14.7 13.4 99 0.1 CALM 0 0 0 0 1013.3 1013.2 17.6
28/08:00pm 13.8 14.9 13.6 99 0.1 CALM 0 0 0 0 1013.2 1013.1 17.6
28/07:30pm 14.3 15.6 14.0 98 0.2 CALM 0 0 0 0 1013.0 1012.9 17.6
28/07:00pm 14.1 15.2 13.6 97 0.3 CALM 0 0 0 0 1012.8 1012.7 17.6
28/06:30pm 14.1 15.2 13.5 96 0.3 CALM 0 0 0 0 1012.6 1012.5 17.6
28/06:00pm 14.5 15.7 13.7 95 0.4 CALM 0 0 0 0 1012.3 1012.2 17.6
28/05:30pm 15.4 16.7 14.1 92 0.7 CALM 0 0 0 0 1011.9 1011.9 17.6
28/05:00pm 16.2 16.5 14.6 90 0.9 WNW 6 13 3 7 1011.7 1011.7 17.6
28/04:30pm 17.0 17.6 15.3 90 1.0 WNW 6 11 3 6 1011.8 1011.8 17.4
28/04:00pm 17.1 18.6 15.6 91 0.9 W 2 6 1 3 1011.4 1011.4 17.4

Other Formats:

Comma delimited format used in spreadsheet applications
http://www.bom.gov.au/fwo/IDW60801/IDW60801.94608.axf

JavaScript Object Notation format (JSON) in row-major order
http://www.bom.gov.au/fwo/IDW60801/IDW60801.94608.json